sensor_id;sensor_type;location;lat;lon;timestamp;P1;durP1;ratioP1;P2;durP2;ratioP2
53875;SDS011;39789;53.216;5.624;2023-11-18T00:00:00;52.78;;;38.63;;
53875;SDS011;39789;53.216;5.624;2023-11-18T00:02:26;57.05;;;38.58;;
53875;SDS011;39789;53.216;5.624;2023-11-18T00:04:52;57.47;;;40.10;;
53875;SDS011;39789;53.216;5.624;2023-11-18T00:07:18;62.97;;;41.05;;
53875;SDS011;39789;53.216;5.624;2023-11-18T00:09:43;58.42;;;39.92;;
53875;SDS011;39789;53.216;5.624;2023-11-18T00:12:11;59.58;;;39.60;;
53875;SDS011;39789;53.216;5.624;2023-11-18T00:14:37;64.63;;;42.33;;
53875;SDS011;39789;53.216;5.624;2023-11-18T00:17:03;65.95;;;42.05;;
53875;SDS011;39789;53.216;5.624;2023-11-18T00:19:29;71.07;;;43.03;;
53875;SDS011;39789;53.216;5.624;2023-11-18T00:21:55;69.90;;;43.55;;
53875;SDS011;39789;53.216;5.624;2023-11-18T00:24:20;71.10;;;45.88;;
53875;SDS011;39789;53.216;5.624;2023-11-18T00:26:46;74.68;;;46.13;;
53875;SDS011;39789;53.216;5.624;2023-11-18T00:29:12;80.63;;;47.47;;
53875;SDS011;39789;53.216;5.624;2023-11-18T00:31:37;73.85;;;46.72;;
53875;SDS011;39789;53.216;5.624;2023-11-18T00:34:05;80.07;;;48.10;;
53875;SDS011;39789;53.216;5.624;2023-11-18T00:36:31;85.25;;;49.30;;
53875;SDS011;39789;53.216;5.624;2023-11-18T00:38:59;82.03;;;51.75;;
53875;SDS011;39789;53.216;5.624;2023-11-18T00:41:25;87.78;;;51.53;;
53875;SDS011;39789;53.216;5.624;2023-11-18T00:43:51;84.28;;;50.67;;
53875;SDS011;39789;53.216;5.624;2023-11-18T00:46:18;87.25;;;48.35;;
53875;SDS011;39789;53.216;5.624;2023-11-18T00:48:44;86.03;;;50.35;;
53875;SDS011;39789;53.216;5.624;2023-11-18T00:51:09;90.90;;;50.95;;
53875;SDS011;39789;53.216;5.624;2023-11-18T00:53:35;97.75;;;53.45;;
53875;SDS011;39789;53.216;5.624;2023-11-18T00:56:00;95.65;;;51.70;;
53875;SDS011;39789;53.216;5.624;2023-11-18T00:58:26;89.40;;;49.25;;
53875;SDS011;39789;53.216;5.624;2023-11-18T01:00:52;85.70;;;49.95;;
53875;SDS011;39789;53.216;5.624;2023-11-18T01:03:17;88.72;;;50.20;;
53875;SDS011;39789;53.216;5.624;2023-11-18T01:05:43;94.25;;;50.85;;
53875;SDS011;39789;53.216;5.624;2023-11-18T01:08:09;86.70;;;51.22;;
53875;SDS011;39789;53.216;5.624;2023-11-18T01:10:35;94.70;;;50.25;;
53875;SDS011;39789;53.216;5.624;2023-11-18T01:13:00;91.65;;;49.95;;
53875;SDS011;39789;53.216;5.624;2023-11-18T01:15:26;94.68;;;51.67;;
53875;SDS011;39789;53.216;5.624;2023-11-18T01:17:52;91.28;;;50.45;;
53875;SDS011;39789;53.216;5.624;2023-11-18T01:20:18;93.43;;;50.00;;
53875;SDS011;39789;53.216;5.624;2023-11-18T01:22:47;94.80;;;53.13;;
53875;SDS011;39789;53.216;5.624;2023-11-18T01:25:14;87.95;;;51.65;;
53875;SDS011;39789;53.216;5.624;2023-11-18T01:27:42;102.40;;;54.80;;
53875;SDS011;39789;53.216;5.624;2023-11-18T01:30:11;110.13;;;55.83;;
53875;SDS011;39789;53.216;5.624;2023-11-18T01:32:38;115.82;;;56.15;;
53875;SDS011;39789;53.216;5.624;2023-11-18T01:35:05;104.63;;;56.78;;
53875;SDS011;39789;53.216;5.624;2023-11-18T01:37:31;109.60;;;57.78;;
53875;SDS011;39789;53.216;5.624;2023-11-18T01:39:57;102.93;;;55.97;;
53875;SDS011;39789;53.216;5.624;2023-11-18T01:42:22;102.68;;;54.42;;
53875;SDS011;39789;53.216;5.624;2023-11-18T01:44:48;89.75;;;52.70;;
53875;SDS011;39789;53.216;5.624;2023-11-18T01:47:14;102.57;;;52.90;;
53875;SDS011;39789;53.216;5.624;2023-11-18T01:49:39;91.55;;;52.67;;
53875;SDS011;39789;53.216;5.624;2023-11-18T01:52:09;101.85;;;53.83;;
53875;SDS011;39789;53.216;5.624;2023-11-18T01:54:37;93.72;;;53.85;;
53875;SDS011;39789;53.216;5.624;2023-11-18T01:57:04;95.63;;;52.30;;
53875;SDS011;39789;53.216;5.624;2023-11-18T01:59:34;109.10;;;56.00;;
53875;SDS011;39789;53.216;5.624;2023-11-18T02:02:00;118.68;;;59.40;;
53875;SDS011;39789;53.216;5.624;2023-11-18T02:04:27;102.68;;;56.97;;
53875;SDS011;39789;53.216;5.624;2023-11-18T02:06:53;97.60;;;56.40;;
53875;SDS011;39789;53.216;5.624;2023-11-18T02:09:19;98.65;;;54.90;;
53875;SDS011;39789;53.216;5.624;2023-11-18T02:12:19;107.95;;;58.05;;
53875;SDS011;39789;53.216;5.624;2023-11-18T02:14:50;112.13;;;57.88;;
53875;SDS011;39789;53.216;5.624;2023-11-18T02:17:20;100.75;;;59.53;;
53875;SDS011;39789;53.216;5.624;2023-11-18T02:19:50;111.97;;;61.60;;
53875;SDS011;39789;53.216;5.624;2023-11-18T02:22:20;98.35;;;58.03;;
53875;SDS011;39789;53.216;5.624;2023-11-18T02:24:47;113.35;;;61.03;;
53875;SDS011;39789;53.216;5.624;2023-11-18T02:27:13;125.85;;;63.03;;
53875;SDS011;39789;53.216;5.624;2023-11-18T02:29:40;117.88;;;63.30;;
53875;SDS011;39789;53.216;5.624;2023-11-18T02:34:33;119.13;;;63.40;;
53875;SDS011;39789;53.216;5.624;2023-11-18T02:37:03;126.28;;;65.28;;
53875;SDS011;39789;53.216;5.624;2023-11-18T02:39:42;126.90;;;64.47;;
53875;SDS011;39789;53.216;5.624;2023-11-18T02:42:10;133.00;;;64.53;;
53875;SDS011;39789;53.216;5.624;2023-11-18T02:44:38;117.03;;;64.20;;
53875;SDS011;39789;53.216;5.624;2023-11-18T02:47:04;127.65;;;64.20;;
53875;SDS011;39789;53.216;5.624;2023-11-18T02:49:31;116.82;;;63.42;;
53875;SDS011;39789;53.216;5.624;2023-11-18T02:51:57;117.32;;;64.40;;
53875;SDS011;39789;53.216;5.624;2023-11-18T02:54:22;126.93;;;67.72;;
53875;SDS011;39789;53.216;5.624;2023-11-18T02:56:48;120.63;;;65.47;;
53875;SDS011;39789;53.216;5.624;2023-11-18T02:59:15;120.00;;;64.97;;
53875;SDS011;39789;53.216;5.624;2023-11-18T03:01:41;122.07;;;65.85;;
53875;SDS011;39789;53.216;5.624;2023-11-18T03:04:06;115.13;;;63.50;;
53875;SDS011;39789;53.216;5.624;2023-11-18T03:06:33;127.72;;;66.93;;
53875;SDS011;39789;53.216;5.624;2023-11-18T03:09:00;127.53;;;64.10;;
53875;SDS011;39789;53.216;5.624;2023-11-18T03:11:26;116.50;;;62.40;;
53875;SDS011;39789;53.216;5.624;2023-11-18T03:13:55;114.05;;;64.10;;
53875;SDS011;39789;53.216;5.624;2023-11-18T03:16:21;125.18;;;66.60;;
53875;SDS011;39789;53.216;5.624;2023-11-18T03:18:49;123.45;;;62.45;;
53875;SDS011;39789;53.216;5.624;2023-11-18T03:21:15;123.20;;;63.40;;
53875;SDS011;39789;53.216;5.624;2023-11-18T03:23:41;119.18;;;67.93;;
53875;SDS011;39789;53.216;5.624;2023-11-18T03:26:07;131.43;;;66.35;;
53875;SDS011;39789;53.216;5.624;2023-11-18T03:28:36;127.10;;;68.65;;
53875;SDS011;39789;53.216;5.624;2023-11-18T03:31:06;119.68;;;65.53;;
53875;SDS011;39789;53.216;5.624;2023-11-18T03:33:32;119.85;;;63.60;;
53875;SDS011;39789;53.216;5.624;2023-11-18T03:35:58;120.65;;;64.47;;
53875;SDS011;39789;53.216;5.624;2023-11-18T03:38:24;122.10;;;63.03;;
53875;SDS011;39789;53.216;5.624;2023-11-18T03:40:50;126.10;;;64.03;;
53875;SDS011;39789;53.216;5.624;2023-11-18T03:43:17;127.15;;;63.10;;
53875;SDS011;39789;53.216;5.624;2023-11-18T03:45:43;133.25;;;64.25;;
53875;SDS011;39789;53.216;5.624;2023-11-18T03:48:08;133.10;;;65.13;;
53875;SDS011;39789;53.216;5.624;2023-11-18T03:50:39;124.55;;;64.88;;
53875;SDS011;39789;53.216;5.624;2023-11-18T03:53:05;119.68;;;62.95;;
53875;SDS011;39789;53.216;5.624;2023-11-18T03:55:31;118.15;;;65.40;;
53875;SDS011;39789;53.216;5.624;2023-11-18T03:57:57;115.35;;;64.32;;
53875;SDS011;39789;53.216;5.624;2023-11-18T04:00:22;110.75;;;64.90;;
53875;SDS011;39789;53.216;5.624;2023-11-18T04:02:54;123.57;;;66.47;;
53875;SDS011;39789;53.216;5.624;2023-11-18T04:05:21;130.65;;;67.32;;
53875;SDS011;39789;53.216;5.624;2023-11-18T04:07:47;125.30;;;66.38;;
53875;SDS011;39789;53.216;5.624;2023-11-18T04:10:12;130.35;;;66.88;;
53875;SDS011;39789;53.216;5.624;2023-11-18T04:12:38;123.38;;;65.82;;
53875;SDS011;39789;53.216;5.624;2023-11-18T04:15:04;109.70;;;65.25;;
53875;SDS011;39789;53.216;5.624;2023-11-18T04:17:31;124.22;;;66.30;;
53875;SDS011;39789;53.216;5.624;2023-11-18T04:19:56;129.93;;;67.18;;
53875;SDS011;39789;53.216;5.624;2023-11-18T04:22:22;131.43;;;68.18;;
53875;SDS011;39789;53.216;5.624;2023-11-18T04:24:48;130.02;;;67.38;;
53875;SDS011;39789;53.216;5.624;2023-11-18T04:27:15;119.53;;;64.68;;
53875;SDS011;39789;53.216;5.624;2023-11-18T04:29:41;127.25;;;66.72;;
53875;SDS011;39789;53.216;5.624;2023-11-18T04:32:07;120.43;;;64.35;;
53875;SDS011;39789;53.216;5.624;2023-11-18T04:34:36;124.47;;;65.55;;
53875;SDS011;39789;53.216;5.624;2023-11-18T04:37:02;123.20;;;66.75;;
53875;SDS011;39789;53.216;5.624;2023-11-18T04:39:28;126.95;;;67.32;;
53875;SDS011;39789;53.216;5.624;2023-11-18T04:41:57;130.23;;;65.82;;
53875;SDS011;39789;53.216;5.624;2023-11-18T04:44:23;126.97;;;67.63;;
53875;SDS011;39789;53.216;5.624;2023-11-18T04:46:48;136.88;;;68.57;;
53875;SDS011;39789;53.216;5.624;2023-11-18T04:49:14;125.10;;;66.95;;
53875;SDS011;39789;53.216;5.624;2023-11-18T04:51:40;136.52;;;67.15;;
53875;SDS011;39789;53.216;5.624;2023-11-18T04:54:05;143.55;;;69.30;;
53875;SDS011;39789;53.216;5.624;2023-11-18T04:56:33;140.48;;;67.00;;
53875;SDS011;39789;53.216;5.624;2023-11-18T04:59:00;119.07;;;65.45;;
53875;SDS011;39789;53.216;5.624;2023-11-18T05:01:27;128.90;;;67.22;;
53875;SDS011;39789;53.216;5.624;2023-11-18T05:03:52;119.97;;;65.15;;
53875;SDS011;39789;53.216;5.624;2023-11-18T05:06:19;128.55;;;67.18;;
53875;SDS011;39789;53.216;5.624;2023-11-18T05:08:45;129.32;;;66.90;;
53875;SDS011;39789;53.216;5.624;2023-11-18T05:11:11;115.63;;;64.72;;
53875;SDS011;39789;53.216;5.624;2023-11-18T05:13:38;119.82;;;65.20;;
53875;SDS011;39789;53.216;5.624;2023-11-18T05:16:05;117.47;;;61.90;;
53875;SDS011;39789;53.216;5.624;2023-11-18T05:18:31;130.82;;;65.80;;
53875;SDS011;39789;53.216;5.624;2023-11-18T05:21:00;126.43;;;63.90;;
53875;SDS011;39789;53.216;5.624;2023-11-18T05:23:28;117.22;;;62.50;;
53875;SDS011;39789;53.216;5.624;2023-11-18T05:25:56;120.10;;;64.78;;
53875;SDS011;39789;53.216;5.624;2023-11-18T05:28:23;119.10;;;60.63;;
53875;SDS011;39789;53.216;5.624;2023-11-18T05:30:49;115.63;;;62.65;;
53875;SDS011;39789;53.216;5.624;2023-11-18T05:33:15;117.07;;;62.85;;
53875;SDS011;39789;53.216;5.624;2023-11-18T05:35:42;125.40;;;63.20;;
53875;SDS011;39789;53.216;5.624;2023-11-18T05:38:15;123.72;;;62.67;;
53875;SDS011;39789;53.216;5.624;2023-11-18T05:40:47;131.32;;;65.57;;
53875;SDS011;39789;53.216;5.624;2023-11-18T05:43:23;135.80;;;69.03;;
53875;SDS011;39789;53.216;5.624;2023-11-18T05:45:53;128.55;;;65.25;;
53875;SDS011;39789;53.216;5.624;2023-11-18T05:48:37;135.47;;;66.13;;
53875;SDS011;39789;53.216;5.624;2023-11-18T05:51:03;128.43;;;67.40;;
53875;SDS011;39789;53.216;5.624;2023-11-18T05:53:28;130.98;;;66.25;;
53875;SDS011;39789;53.216;5.624;2023-11-18T05:55:55;124.88;;;64.60;;
53875;SDS011;39789;53.216;5.624;2023-11-18T05:58:21;124.47;;;67.50;;
53875;SDS011;39789;53.216;5.624;2023-11-18T06:00:47;132.32;;;68.20;;
53875;SDS011;39789;53.216;5.624;2023-11-18T06:03:13;140.95;;;69.32;;
53875;SDS011;39789;53.216;5.624;2023-11-18T06:05:39;136.13;;;70.32;;
53875;SDS011;39789;53.216;5.624;2023-11-18T06:08:04;145.07;;;73.78;;
53875;SDS011;39789;53.216;5.624;2023-11-18T06:10:30;132.35;;;70.07;;
53875;SDS011;39789;53.216;5.624;2023-11-18T06:12:59;128.68;;;68.10;;
53875;SDS011;39789;53.216;5.624;2023-11-18T06:15:25;144.93;;;73.18;;
53875;SDS011;39789;53.216;5.624;2023-11-18T06:17:52;133.13;;;69.20;;
53875;SDS011;39789;53.216;5.624;2023-11-18T06:20:20;133.30;;;70.07;;
53875;SDS011;39789;53.216;5.624;2023-11-18T06:22:48;133.25;;;71.70;;
53875;SDS011;39789;53.216;5.624;2023-11-18T06:25:14;119.82;;;66.47;;
53875;SDS011;39789;53.216;5.624;2023-11-18T06:27:42;116.80;;;68.15;;
53875;SDS011;39789;53.216;5.624;2023-11-18T06:30:10;137.98;;;69.95;;
53875;SDS011;39789;53.216;5.624;2023-11-18T06:32:37;121.55;;;66.10;;
53875;SDS011;39789;53.216;5.624;2023-11-18T06:35:04;136.20;;;70.78;;
53875;SDS011;39789;53.216;5.624;2023-11-18T06:37:33;114.30;;;65.50;;
53875;SDS011;39789;53.216;5.624;2023-11-18T06:39:59;127.88;;;69.13;;
53875;SDS011;39789;53.216;5.624;2023-11-18T06:42:25;136.68;;;70.97;;
53875;SDS011;39789;53.216;5.624;2023-11-18T06:44:50;124.60;;;67.63;;
53875;SDS011;39789;53.216;5.624;2023-11-18T06:47:16;131.05;;;69.78;;
53875;SDS011;39789;53.216;5.624;2023-11-18T06:49:44;125.88;;;68.97;;
53875;SDS011;39789;53.216;5.624;2023-11-18T06:52:10;124.38;;;66.90;;
53875;SDS011;39789;53.216;5.624;2023-11-18T06:54:40;123.45;;;67.75;;
53875;SDS011;39789;53.216;5.624;2023-11-18T06:57:06;127.68;;;68.40;;
53875;SDS011;39789;53.216;5.624;2023-11-18T06:59:32;123.07;;;67.70;;
53875;SDS011;39789;53.216;5.624;2023-11-18T07:01:57;110.57;;;65.40;;
53875;SDS011;39789;53.216;5.624;2023-11-18T07:04:24;116.30;;;64.80;;
53875;SDS011;39789;53.216;5.624;2023-11-18T07:06:50;125.05;;;67.57;;
53875;SDS011;39789;53.216;5.624;2023-11-18T07:09:16;117.13;;;66.38;;
53875;SDS011;39789;53.216;5.624;2023-11-18T07:11:46;117.53;;;66.75;;
53875;SDS011;39789;53.216;5.624;2023-11-18T07:14:12;122.38;;;66.57;;
53875;SDS011;39789;53.216;5.624;2023-11-18T07:16:40;120.95;;;67.50;;
53875;SDS011;39789;53.216;5.624;2023-11-18T07:19:06;121.70;;;67.30;;
53875;SDS011;39789;53.216;5.624;2023-11-18T07:21:33;112.25;;;65.50;;
53875;SDS011;39789;53.216;5.624;2023-11-18T07:23:59;115.65;;;65.88;;
53875;SDS011;39789;53.216;5.624;2023-11-18T07:26:25;116.28;;;66.18;;
53875;SDS011;39789;53.216;5.624;2023-11-18T07:28:51;111.82;;;65.30;;
53875;SDS011;39789;53.216;5.624;2023-11-18T07:31:17;131.90;;;71.13;;
53875;SDS011;39789;53.216;5.624;2023-11-18T07:33:43;121.53;;;69.55;;
53875;SDS011;39789;53.216;5.624;2023-11-18T07:36:14;121.30;;;68.40;;
53875;SDS011;39789;53.216;5.624;2023-11-18T07:38:44;119.53;;;67.30;;
53875;SDS011;39789;53.216;5.624;2023-11-18T07:41:14;112.20;;;66.50;;
53875;SDS011;39789;53.216;5.624;2023-11-18T07:43:52;116.75;;;65.22;;
53875;SDS011;39789;53.216;5.624;2023-11-18T07:46:21;106.38;;;62.95;;
53875;SDS011;39789;53.216;5.624;2023-11-18T07:48:48;113.93;;;63.47;;
53875;SDS011;39789;53.216;5.624;2023-11-18T07:51:14;102.05;;;59.67;;
53875;SDS011;39789;53.216;5.624;2023-11-18T07:53:40;115.50;;;63.42;;
53875;SDS011;39789;53.216;5.624;2023-11-18T07:56:07;105.75;;;62.00;;
53875;SDS011;39789;53.216;5.624;2023-11-18T07:58:37;102.57;;;58.92;;
53875;SDS011;39789;53.216;5.624;2023-11-18T08:01:03;110.20;;;61.88;;
53875;SDS011;39789;53.216;5.624;2023-11-18T08:03:32;105.95;;;60.55;;
53875;SDS011;39789;53.216;5.624;2023-11-18T08:05:58;105.95;;;60.05;;
53875;SDS011;39789;53.216;5.624;2023-11-18T08:08:24;112.50;;;62.25;;
53875;SDS011;39789;53.216;5.624;2023-11-18T08:10:50;96.80;;;55.70;;
53875;SDS011;39789;53.216;5.624;2023-11-18T08:13:16;104.65;;;58.00;;
53875;SDS011;39789;53.216;5.624;2023-11-18T08:15:42;91.05;;;55.35;;
53875;SDS011;39789;53.216;5.624;2023-11-18T08:18:10;91.70;;;54.47;;
53875;SDS011;39789;53.216;5.624;2023-11-18T08:20:36;100.68;;;56.38;;
53875;SDS011;39789;53.216;5.624;2023-11-18T08:23:02;96.57;;;54.63;;
53875;SDS011;39789;53.216;5.624;2023-11-18T08:25:29;85.65;;;54.25;;
53875;SDS011;39789;53.216;5.624;2023-11-18T08:27:57;92.45;;;53.45;;
53875;SDS011;39789;53.216;5.624;2023-11-18T08:30:23;85.25;;;50.55;;
53875;SDS011;39789;53.216;5.624;2023-11-18T08:32:49;83.60;;;50.45;;
53875;SDS011;39789;53.216;5.624;2023-11-18T08:35:14;85.97;;;52.60;;
53875;SDS011;39789;53.216;5.624;2023-11-18T08:37:43;84.57;;;49.83;;
53875;SDS011;39789;53.216;5.624;2023-11-18T08:40:10;86.82;;;51.35;;
53875;SDS011;39789;53.216;5.624;2023-11-18T08:42:49;81.75;;;49.28;;
53875;SDS011;39789;53.216;5.624;2023-11-18T08:45:29;86.10;;;48.67;;
53875;SDS011;39789;53.216;5.624;2023-11-18T08:47:59;80.13;;;48.55;;
53875;SDS011;39789;53.216;5.624;2023-11-18T08:50:36;85.35;;;49.80;;
53875;SDS011;39789;53.216;5.624;2023-11-18T08:53:05;80.00;;;47.70;;
53875;SDS011;39789;53.216;5.624;2023-11-18T08:55:34;76.90;;;46.92;;
53875;SDS011;39789;53.216;5.624;2023-11-18T08:58:12;79.13;;;49.25;;
53875;SDS011;39789;53.216;5.624;2023-11-18T09:00:51;75.93;;;47.60;;
53875;SDS011;39789;53.216;5.624;2023-11-18T09:03:18;82.85;;;47.58;;
53875;SDS011;39789;53.216;5.624;2023-11-18T09:06:00;79.75;;;47.92;;
53875;SDS011;39789;53.216;5.624;2023-11-18T09:08:42;88.65;;;48.75;;
53875;SDS011;39789;53.216;5.624;2023-11-18T09:11:10;79.57;;;46.15;;
53875;SDS011;39789;53.216;5.624;2023-11-18T09:13:39;79.95;;;46.75;;
53875;SDS011;39789;53.216;5.624;2023-11-18T09:16:08;80.55;;;47.53;;
53875;SDS011;39789;53.216;5.624;2023-11-18T09:18:34;77.57;;;45.15;;
53875;SDS011;39789;53.216;5.624;2023-11-18T09:21:05;78.90;;;46.17;;
53875;SDS011;39789;53.216;5.624;2023-11-18T09:23:31;75.70;;;46.17;;
53875;SDS011;39789;53.216;5.624;2023-11-18T09:25:59;72.28;;;44.90;;
53875;SDS011;39789;53.216;5.624;2023-11-18T09:28:26;76.53;;;43.72;;
53875;SDS011;39789;53.216;5.624;2023-11-18T09:30:55;69.82;;;45.40;;
53875;SDS011;39789;53.216;5.624;2023-11-18T09:33:25;76.95;;;43.38;;
53875;SDS011;39789;53.216;5.624;2023-11-18T09:35:57;69.95;;;41.00;;
53875;SDS011;39789;53.216;5.624;2023-11-18T09:38:30;65.85;;;42.22;;
53875;SDS011;39789;53.216;5.624;2023-11-18T09:41:00;66.28;;;41.78;;
53875;SDS011;39789;53.216;5.624;2023-11-18T09:43:32;65.15;;;42.63;;
53875;SDS011;39789;53.216;5.624;2023-11-18T09:46:07;61.22;;;42.30;;
53875;SDS011;39789;53.216;5.624;2023-11-18T09:51:27;62.78;;;40.47;;
53875;SDS011;39789;53.216;5.624;2023-11-18T09:54:01;69.55;;;40.97;;
53875;SDS011;39789;53.216;5.624;2023-11-18T09:56:33;69.88;;;41.50;;
53875;SDS011;39789;53.216;5.624;2023-11-18T09:59:16;60.95;;;39.70;;
53875;SDS011;39789;53.216;5.624;2023-11-18T10:01:53;62.75;;;39.88;;
53875;SDS011;39789;53.216;5.624;2023-11-18T10:04:21;61.22;;;39.28;;
53875;SDS011;39789;53.216;5.624;2023-11-18T10:06:52;60.50;;;39.75;;
53875;SDS011;39789;53.216;5.624;2023-11-18T10:09:19;59.65;;;37.85;;
53875;SDS011;39789;53.216;5.624;2023-11-18T10:11:53;58.83;;;40.90;;
53875;SDS011;39789;53.216;5.624;2023-11-18T10:14:30;63.33;;;39.42;;
53875;SDS011;39789;53.216;5.624;2023-11-18T10:17:02;64.28;;;41.95;;
53875;SDS011;39789;53.216;5.624;2023-11-18T10:22:24;63.30;;;42.05;;
53875;SDS011;39789;53.216;5.624;2023-11-18T10:24:54;59.67;;;41.00;;
53875;SDS011;39789;53.216;5.624;2023-11-18T10:27:24;60.28;;;40.90;;
53875;SDS011;39789;53.216;5.624;2023-11-18T10:29:50;67.30;;;43.92;;
53875;SDS011;39789;53.216;5.624;2023-11-18T10:32:20;60.33;;;41.00;;
53875;SDS011;39789;53.216;5.624;2023-11-18T10:34:50;59.72;;;41.17;;
53875;SDS011;39789;53.216;5.624;2023-11-18T10:37:16;57.67;;;40.10;;
53875;SDS011;39789;53.216;5.624;2023-11-18T10:39:46;60.70;;;41.05;;
53875;SDS011;39789;53.216;5.624;2023-11-18T10:42:13;58.47;;;39.88;;
53875;SDS011;39789;53.216;5.624;2023-11-18T10:44:53;58.67;;;41.47;;
53875;SDS011;39789;53.216;5.624;2023-11-18T10:47:22;54.90;;;39.15;;
53875;SDS011;39789;53.216;5.624;2023-11-18T10:49:55;59.63;;;39.92;;
53875;SDS011;39789;53.216;5.624;2023-11-18T10:52:21;52.72;;;37.72;;
53875;SDS011;39789;53.216;5.624;2023-11-18T10:54:57;60.35;;;40.53;;
53875;SDS011;39789;53.216;5.624;2023-11-18T10:57:23;58.17;;;38.42;;
53875;SDS011;39789;53.216;5.624;2023-11-18T11:00:05;58.92;;;40.00;;
53875;SDS011;39789;53.216;5.624;2023-11-18T11:02:44;59.28;;;38.53;;
53875;SDS011;39789;53.216;5.624;2023-11-18T11:05:12;67.60;;;40.30;;
53875;SDS011;39789;53.216;5.624;2023-11-18T11:07:52;53.38;;;37.88;;
53875;SDS011;39789;53.216;5.624;2023-11-18T11:10:19;57.30;;;38.92;;
53875;SDS011;39789;53.216;5.624;2023-11-18T11:12:50;50.63;;;36.75;;
53875;SDS011;39789;53.216;5.624;2023-11-18T11:15:17;52.88;;;35.13;;
53875;SDS011;39789;53.216;5.624;2023-11-18T11:17:58;51.75;;;36.03;;
53875;SDS011;39789;53.216;5.624;2023-11-18T11:20:41;59.70;;;37.45;;
53875;SDS011;39789;53.216;5.624;2023-11-18T11:28:42;55.17;;;37.90;;
53875;SDS011;39789;53.216;5.624;2023-11-18T11:31:20;54.85;;;38.88;;
53875;SDS011;39789;53.216;5.624;2023-11-18T11:33:55;52.85;;;38.65;;
53875;SDS011;39789;53.216;5.624;2023-11-18T11:36:25;61.60;;;41.03;;
53875;SDS011;39789;53.216;5.624;2023-11-18T11:38:59;62.90;;;38.90;;
53875;SDS011;39789;53.216;5.624;2023-11-18T11:41:26;53.28;;;37.30;;
53875;SDS011;39789;53.216;5.624;2023-11-18T11:43:53;62.65;;;39.08;;
53875;SDS011;39789;53.216;5.624;2023-11-18T11:46:23;54.53;;;36.03;;
53875;SDS011;39789;53.216;5.624;2023-11-18T11:48:52;50.63;;;35.15;;
53875;SDS011;39789;53.216;5.624;2023-11-18T11:54:22;54.00;;;37.00;;
53875;SDS011;39789;53.216;5.624;2023-11-18T11:56:56;58.33;;;34.75;;
53875;SDS011;39789;53.216;5.624;2023-11-18T12:02:15;57.50;;;34.50;;
53875;SDS011;39789;53.216;5.624;2023-11-18T12:04:44;51.72;;;33.67;;
53875;SDS011;39789;53.216;5.624;2023-11-18T12:07:10;55.72;;;34.47;;
53875;SDS011;39789;53.216;5.624;2023-11-18T12:09:40;53.85;;;33.97;;
53875;SDS011;39789;53.216;5.624;2023-11-18T12:12:18;49.97;;;32.83;;
53875;SDS011;39789;53.216;5.624;2023-11-18T12:15:00;49.13;;;33.03;;
53875;SDS011;39789;53.216;5.624;2023-11-18T12:18:09;56.80;;;34.92;;
53875;SDS011;39789;53.216;5.624;2023-11-18T12:20:42;54.63;;;32.80;;
53875;SDS011;39789;53.216;5.624;2023-11-18T12:23:20;51.47;;;32.80;;
53875;SDS011;39789;53.216;5.624;2023-11-18T12:25:53;56.13;;;34.25;;
53875;SDS011;39789;53.216;5.624;2023-11-18T12:28:19;53.33;;;34.83;;
53875;SDS011;39789;53.216;5.624;2023-11-18T12:30:52;55.15;;;33.88;;
53875;SDS011;39789;53.216;5.624;2023-11-18T12:33:25;51.53;;;33.60;;
53875;SDS011;39789;53.216;5.624;2023-11-18T12:42:01;57.53;;;32.80;;
53875;SDS011;39789;53.216;5.624;2023-11-18T12:47:29;55.63;;;32.53;;
53875;SDS011;39789;53.216;5.624;2023-11-18T12:49:57;55.22;;;34.33;;
53875;SDS011;39789;53.216;5.624;2023-11-18T12:52:25;55.22;;;32.80;;
53875;SDS011;39789;53.216;5.624;2023-11-18T12:54:53;52.38;;;33.65;;
53875;SDS011;39789;53.216;5.624;2023-11-18T12:57:26;53.97;;;33.45;;
53875;SDS011;39789;53.216;5.624;2023-11-18T12:59:59;54.53;;;32.95;;
53875;SDS011;39789;53.216;5.624;2023-11-18T13:02:25;58.33;;;34.45;;
53875;SDS011;39789;53.216;5.624;2023-11-18T13:04:51;67.20;;;37.28;;
53875;SDS011;39789;53.216;5.624;2023-11-18T13:07:19;57.83;;;35.28;;
53875;SDS011;39789;53.216;5.624;2023-11-18T13:09:47;60.97;;;35.83;;
53875;SDS011;39789;53.216;5.624;2023-11-18T13:12:14;60.58;;;37.65;;
53875;SDS011;39789;53.216;5.624;2023-11-18T13:14:43;59.95;;;35.67;;
53875;SDS011;39789;53.216;5.624;2023-11-18T13:17:11;58.38;;;35.30;;
53875;SDS011;39789;53.216;5.624;2023-11-18T13:19:38;58.15;;;35.20;;
53875;SDS011;39789;53.216;5.624;2023-11-18T13:22:05;55.50;;;33.97;;
53875;SDS011;39789;53.216;5.624;2023-11-18T13:24:35;47.05;;;30.33;;
53875;SDS011;39789;53.216;5.624;2023-11-18T13:27:04;51.35;;;32.05;;
53875;SDS011;39789;53.216;5.624;2023-11-18T13:29:35;49.80;;;30.80;;
53875;SDS011;39789;53.216;5.624;2023-11-18T13:32:07;51.85;;;31.92;;
53875;SDS011;39789;53.216;5.624;2023-11-18T13:34:35;47.88;;;30.65;;
53875;SDS011;39789;53.216;5.624;2023-11-18T13:37:06;48.28;;;30.42;;
53875;SDS011;39789;53.216;5.624;2023-11-18T13:39:32;54.15;;;33.13;;
53875;SDS011;39789;53.216;5.624;2023-11-18T13:42:21;47.47;;;31.23;;
53875;SDS011;39789;53.216;5.624;2023-11-18T13:44:49;44.63;;;29.27;;
53875;SDS011;39789;53.216;5.624;2023-11-18T13:47:19;46.28;;;29.98;;
53875;SDS011;39789;53.216;5.624;2023-11-18T13:49:45;41.00;;;27.08;;
53875;SDS011;39789;53.216;5.624;2023-11-18T13:52:15;44.50;;;28.63;;
53875;SDS011;39789;53.216;5.624;2023-11-18T13:54:43;41.05;;;26.95;;
53875;SDS011;39789;53.216;5.624;2023-11-18T13:57:10;43.15;;;26.63;;
53875;SDS011;39789;53.216;5.624;2023-11-18T13:59:36;37.22;;;26.23;;
53875;SDS011;39789;53.216;5.624;2023-11-18T14:02:03;38.20;;;27.00;;
53875;SDS011;39789;53.216;5.624;2023-11-18T14:04:30;37.33;;;25.35;;
53875;SDS011;39789;53.216;5.624;2023-11-18T14:07:02;34.85;;;25.02;;
53875;SDS011;39789;53.216;5.624;2023-11-18T14:09:31;35.45;;;25.02;;
53875;SDS011;39789;53.216;5.624;2023-11-18T14:12:10;36.40;;;26.30;;
53875;SDS011;39789;53.216;5.624;2023-11-18T14:14:37;33.08;;;24.88;;
53875;SDS011;39789;53.216;5.624;2023-11-18T14:17:03;34.15;;;24.13;;
53875;SDS011;39789;53.216;5.624;2023-11-18T14:19:31;33.10;;;25.58;;
53875;SDS011;39789;53.216;5.624;2023-11-18T14:21:57;42.17;;;27.10;;
53875;SDS011;39789;53.216;5.624;2023-11-18T14:24:23;28.30;;;21.90;;
53875;SDS011;39789;53.216;5.624;2023-11-18T14:26:52;40.53;;;25.70;;
53875;SDS011;39789;53.216;5.624;2023-11-18T14:29:21;28.88;;;23.58;;
53875;SDS011;39789;53.216;5.624;2023-11-18T14:31:48;34.10;;;25.58;;
53875;SDS011;39789;53.216;5.624;2023-11-18T14:34:14;30.23;;;24.23;;
53875;SDS011;39789;53.216;5.624;2023-11-18T14:36:40;31.17;;;24.58;;
53875;SDS011;39789;53.216;5.624;2023-11-18T14:39:06;33.08;;;25.73;;
53875;SDS011;39789;53.216;5.624;2023-11-18T14:41:37;32.60;;;25.13;;
53875;SDS011;39789;53.216;5.624;2023-11-18T14:44:11;28.63;;;24.33;;
53875;SDS011;39789;53.216;5.624;2023-11-18T14:46:37;32.97;;;26.48;;
53875;SDS011;39789;53.216;5.624;2023-11-18T14:49:08;30.15;;;26.15;;
53875;SDS011;39789;53.216;5.624;2023-11-18T14:51:35;33.92;;;25.85;;